sensor_id;sensor_type;location;lat;lon;timestamp;P1;durP1;ratioP1;P2;durP2;ratioP2
33844;SDS011;20145;43.118;25.694;2023-08-06T00:00:52;5.05;;;4.30;;
33844;SDS011;20145;43.118;25.694;2023-08-06T00:03:19;7.28;;;4.55;;
33844;SDS011;20145;43.118;25.694;2023-08-06T00:05:44;6.93;;;3.90;;
33844;SDS011;20145;43.118;25.694;2023-08-06T00:08:10;4.45;;;3.63;;
33844;SDS011;20145;43.118;25.694;2023-08-06T00:10:35;4.35;;;3.95;;
33844;SDS011;20145;43.118;25.694;2023-08-06T00:13:01;4.63;;;4.20;;
33844;SDS011;20145;43.118;25.694;2023-08-06T00:15:27;5.18;;;4.10;;
33844;SDS011;20145;43.118;25.694;2023-08-06T00:18:01;6.38;;;3.75;;
33844;SDS011;20145;43.118;25.694;2023-08-06T00:20:28;6.40;;;3.58;;
33844;SDS011;20145;43.118;25.694;2023-08-06T00:22:54;5.28;;;3.90;;
33844;SDS011;20145;43.118;25.694;2023-08-06T00:25:20;5.43;;;4.22;;
33844;SDS011;20145;43.118;25.694;2023-08-06T00:27:46;4.43;;;3.80;;
33844;SDS011;20145;43.118;25.694;2023-08-06T00:30:11;4.80;;;3.60;;
33844;SDS011;20145;43.118;25.694;2023-08-06T00:32:38;4.55;;;4.15;;
33844;SDS011;20145;43.118;25.694;2023-08-06T00:35:03;4.93;;;4.05;;
33844;SDS011;20145;43.118;25.694;2023-08-06T00:37:29;7.00;;;4.38;;
33844;SDS011;20145;43.118;25.694;2023-08-06T00:39:55;5.05;;;4.55;;
33844;SDS011;20145;43.118;25.694;2023-08-06T00:42:20;7.20;;;4.53;;
33844;SDS011;20145;43.118;25.694;2023-08-06T00:44:47;7.90;;;6.47;;
33844;SDS011;20145;43.118;25.694;2023-08-06T00:47:13;7.00;;;6.10;;
33844;SDS011;20145;43.118;25.694;2023-08-06T00:49:39;12.85;;;7.40;;
33844;SDS011;20145;43.118;25.694;2023-08-06T00:52:05;5.47;;;4.88;;
33844;SDS011;20145;43.118;25.694;2023-08-06T00:54:32;7.22;;;3.85;;
33844;SDS011;20145;43.118;25.694;2023-08-06T00:56:58;10.63;;;4.05;;
33844;SDS011;20145;43.118;25.694;2023-08-06T00:59:26;3.47;;;2.47;;
33844;SDS011;20145;43.118;25.694;2023-08-06T01:01:52;6.03;;;2.72;;
33844;SDS011;20145;43.118;25.694;2023-08-06T01:04:17;3.75;;;2.50;;
33844;SDS011;20145;43.118;25.694;2023-08-06T01:06:47;3.97;;;2.60;;
33844;SDS011;20145;43.118;25.694;2023-08-06T01:16:55;5.97;;;2.30;;
33844;SDS011;20145;43.118;25.694;2023-08-06T01:19:23;3.70;;;2.40;;
33844;SDS011;20145;43.118;25.694;2023-08-06T01:21:49;4.57;;;2.22;;
33844;SDS011;20145;43.118;25.694;2023-08-06T01:24:15;5.25;;;2.42;;
33844;SDS011;20145;43.118;25.694;2023-08-06T01:26:45;2.92;;;2.25;;
33844;SDS011;20145;43.118;25.694;2023-08-06T01:29:44;3.58;;;2.22;;
33844;SDS011;20145;43.118;25.694;2023-08-06T01:32:14;8.10;;;1.90;;
33844;SDS011;20145;43.118;25.694;2023-08-06T01:34:41;4.60;;;2.50;;
33844;SDS011;20145;43.118;25.694;2023-08-06T01:37:10;6.10;;;2.30;;
33844;SDS011;20145;43.118;25.694;2023-08-06T01:39:36;3.55;;;2.22;;
33844;SDS011;20145;43.118;25.694;2023-08-06T01:42:01;3.53;;;2.08;;
33844;SDS011;20145;43.118;25.694;2023-08-06T01:44:27;4.60;;;2.42;;
33844;SDS011;20145;43.118;25.694;2023-08-06T01:46:53;2.63;;;2.10;;
33844;SDS011;20145;43.118;25.694;2023-08-06T01:49:19;2.45;;;1.88;;
33844;SDS011;20145;43.118;25.694;2023-08-06T01:51:44;5.32;;;2.08;;
33844;SDS011;20145;43.118;25.694;2023-08-06T01:54:10;3.15;;;2.15;;
33844;SDS011;20145;43.118;25.694;2023-08-06T01:56:35;3.00;;;1.85;;
33844;SDS011;20145;43.118;25.694;2023-08-06T01:59:01;4.28;;;2.00;;
33844;SDS011;20145;43.118;25.694;2023-08-06T02:01:26;2.33;;;2.10;;
33844;SDS011;20145;43.118;25.694;2023-08-06T02:03:52;3.85;;;2.28;;
33844;SDS011;20145;43.118;25.694;2023-08-06T02:06:17;2.80;;;2.03;;
33844;SDS011;20145;43.118;25.694;2023-08-06T02:08:43;4.22;;;2.28;;
33844;SDS011;20145;43.118;25.694;2023-08-06T02:11:08;2.45;;;2.25;;
33844;SDS011;20145;43.118;25.694;2023-08-06T02:13:34;3.50;;;2.15;;
33844;SDS011;20145;43.118;25.694;2023-08-06T02:16:00;8.18;;;2.35;;
33844;SDS011;20145;43.118;25.694;2023-08-06T02:18:25;2.47;;;2.28;;
33844;SDS011;20145;43.118;25.694;2023-08-06T02:20:57;3.30;;;1.88;;
33844;SDS011;20145;43.118;25.694;2023-08-06T02:23:24;2.83;;;2.20;;
33844;SDS011;20145;43.118;25.694;2023-08-06T02:25:57;2.47;;;2.10;;
33844;SDS011;20145;43.118;25.694;2023-08-06T02:28:26;3.90;;;2.08;;
33844;SDS011;20145;43.118;25.694;2023-08-06T02:30:52;4.07;;;2.58;;
33844;SDS011;20145;43.118;25.694;2023-08-06T02:33:17;2.58;;;2.13;;
33844;SDS011;20145;43.118;25.694;2023-08-06T02:35:43;2.53;;;2.33;;
33844;SDS011;20145;43.118;25.694;2023-08-06T02:38:08;3.97;;;2.90;;
33844;SDS011;20145;43.118;25.694;2023-08-06T02:40:34;2.83;;;2.30;;
33844;SDS011;20145;43.118;25.694;2023-08-06T02:42:59;4.38;;;2.80;;
33844;SDS011;20145;43.118;25.694;2023-08-06T02:45:25;3.50;;;2.80;;
33844;SDS011;20145;43.118;25.694;2023-08-06T02:47:51;3.50;;;2.33;;
33844;SDS011;20145;43.118;25.694;2023-08-06T02:50:17;3.63;;;1.88;;
33844;SDS011;20145;43.118;25.694;2023-08-06T02:52:42;3.38;;;1.83;;
33844;SDS011;20145;43.118;25.694;2023-08-06T02:55:09;2.00;;;1.90;;
33844;SDS011;20145;43.118;25.694;2023-08-06T02:57:35;3.17;;;2.30;;
33844;SDS011;20145;43.118;25.694;2023-08-06T03:00:00;3.65;;;1.80;;
33844;SDS011;20145;43.118;25.694;2023-08-06T03:02:26;3.47;;;2.22;;
33844;SDS011;20145;43.118;25.694;2023-08-06T03:04:51;2.38;;;2.00;;
33844;SDS011;20145;43.118;25.694;2023-08-06T03:07:17;3.97;;;2.05;;
33844;SDS011;20145;43.118;25.694;2023-08-06T03:09:42;4.68;;;2.10;;
33844;SDS011;20145;43.118;25.694;2023-08-06T03:12:08;2.25;;;1.63;;
33844;SDS011;20145;43.118;25.694;2023-08-06T03:14:34;3.13;;;2.00;;
33844;SDS011;20145;43.118;25.694;2023-08-06T03:17:00;2.72;;;2.17;;
33844;SDS011;20145;43.118;25.694;2023-08-06T03:19:26;2.65;;;2.05;;
33844;SDS011;20145;43.118;25.694;2023-08-06T03:21:51;1.70;;;1.60;;
33844;SDS011;20145;43.118;25.694;2023-08-06T03:24:17;2.22;;;1.55;;
33844;SDS011;20145;43.118;25.694;2023-08-06T03:26:42;3.10;;;1.90;;
33844;SDS011;20145;43.118;25.694;2023-08-06T03:29:08;2.15;;;1.92;;
33844;SDS011;20145;43.118;25.694;2023-08-06T03:31:33;2.25;;;1.55;;
33844;SDS011;20145;43.118;25.694;2023-08-06T03:33:59;2.15;;;1.95;;
33844;SDS011;20145;43.118;25.694;2023-08-06T03:36:24;2.03;;;1.83;;
33844;SDS011;20145;43.118;25.694;2023-08-06T03:38:50;2.13;;;1.80;;
33844;SDS011;20145;43.118;25.694;2023-08-06T03:41:15;3.05;;;2.00;;
33844;SDS011;20145;43.118;25.694;2023-08-06T03:43:41;2.90;;;1.65;;
33844;SDS011;20145;43.118;25.694;2023-08-06T03:46:06;2.80;;;1.60;;
33844;SDS011;20145;43.118;25.694;2023-08-06T03:48:32;2.50;;;1.60;;
33844;SDS011;20145;43.118;25.694;2023-08-06T03:50:57;1.80;;;1.70;;
33844;SDS011;20145;43.118;25.694;2023-08-06T03:53:25;4.03;;;1.75;;
33844;SDS011;20145;43.118;25.694;2023-08-06T03:55:51;2.90;;;1.98;;
33844;SDS011;20145;43.118;25.694;2023-08-06T03:58:17;2.17;;;1.73;;
33844;SDS011;20145;43.118;25.694;2023-08-06T04:00:42;2.10;;;1.70;;
33844;SDS011;20145;43.118;25.694;2023-08-06T04:03:09;2.40;;;1.85;;
33844;SDS011;20145;43.118;25.694;2023-08-06T04:05:35;2.03;;;1.67;;
33844;SDS011;20145;43.118;25.694;2023-08-06T04:08:00;2.88;;;2.05;;
33844;SDS011;20145;43.118;25.694;2023-08-06T04:10:26;5.28;;;1.80;;
33844;SDS011;20145;43.118;25.694;2023-08-06T04:12:52;2.15;;;1.73;;
33844;SDS011;20145;43.118;25.694;2023-08-06T04:15:17;3.17;;;2.13;;
33844;SDS011;20145;43.118;25.694;2023-08-06T04:17:43;1.55;;;1.10;;
33844;SDS011;20145;43.118;25.694;2023-08-06T04:20:08;3.60;;;2.15;;
33844;SDS011;20145;43.118;25.694;2023-08-06T04:22:34;2.38;;;1.77;;
33844;SDS011;20145;43.118;25.694;2023-08-06T04:25:00;3.17;;;2.13;;
33844;SDS011;20145;43.118;25.694;2023-08-06T04:27:25;2.22;;;1.70;;
33844;SDS011;20145;43.118;25.694;2023-08-06T04:29:51;4.22;;;1.95;;
33844;SDS011;20145;43.118;25.694;2023-08-06T04:32:16;3.17;;;2.25;;
33844;SDS011;20145;43.118;25.694;2023-08-06T04:34:44;3.10;;;1.73;;
33844;SDS011;20145;43.118;25.694;2023-08-06T04:37:10;2.92;;;2.00;;
33844;SDS011;20145;43.118;25.694;2023-08-06T04:39:35;3.78;;;1.55;;
33844;SDS011;20145;43.118;25.694;2023-08-06T04:42:01;2.47;;;1.85;;
33844;SDS011;20145;43.118;25.694;2023-08-06T04:44:27;3.70;;;1.70;;
33844;SDS011;20145;43.118;25.694;2023-08-06T04:46:52;3.33;;;1.80;;
33844;SDS011;20145;43.118;25.694;2023-08-06T04:49:19;2.40;;;2.00;;
33844;SDS011;20145;43.118;25.694;2023-08-06T04:51:45;3.25;;;2.10;;
33844;SDS011;20145;43.118;25.694;2023-08-06T04:54:11;5.50;;;2.17;;
33844;SDS011;20145;43.118;25.694;2023-08-06T04:56:36;2.08;;;1.70;;
33844;SDS011;20145;43.118;25.694;2023-08-06T04:59:03;3.00;;;1.70;;
33844;SDS011;20145;43.118;25.694;2023-08-06T05:01:29;2.97;;;1.48;;
33844;SDS011;20145;43.118;25.694;2023-08-06T05:03:54;2.53;;;1.85;;
33844;SDS011;20145;43.118;25.694;2023-08-06T05:06:20;2.67;;;1.90;;
33844;SDS011;20145;43.118;25.694;2023-08-06T05:08:45;4.07;;;1.90;;
33844;SDS011;20145;43.118;25.694;2023-08-06T05:11:11;2.25;;;1.85;;
33844;SDS011;20145;43.118;25.694;2023-08-06T05:13:37;4.20;;;1.92;;
33844;SDS011;20145;43.118;25.694;2023-08-06T05:16:02;7.05;;;2.13;;
33844;SDS011;20145;43.118;25.694;2023-08-06T05:18:28;3.05;;;1.73;;
33844;SDS011;20145;43.118;25.694;2023-08-06T05:20:55;2.50;;;1.70;;
33844;SDS011;20145;43.118;25.694;2023-08-06T05:23:21;2.33;;;1.75;;
33844;SDS011;20145;43.118;25.694;2023-08-06T05:25:47;5.53;;;2.10;;
33844;SDS011;20145;43.118;25.694;2023-08-06T05:28:12;4.88;;;1.80;;
33844;SDS011;20145;43.118;25.694;2023-08-06T05:30:41;3.40;;;1.70;;
33844;SDS011;20145;43.118;25.694;2023-08-06T05:33:06;3.92;;;1.90;;
33844;SDS011;20145;43.118;25.694;2023-08-06T05:35:33;1.67;;;1.58;;
33844;SDS011;20145;43.118;25.694;2023-08-06T05:37:59;2.47;;;1.80;;
33844;SDS011;20145;43.118;25.694;2023-08-06T05:40:25;2.55;;;1.90;;
33844;SDS011;20145;43.118;25.694;2023-08-06T05:42:51;2.60;;;1.50;;
33844;SDS011;20145;43.118;25.694;2023-08-06T05:45:18;2.10;;;1.40;;
33844;SDS011;20145;43.118;25.694;2023-08-06T05:47:45;11.95;;;6.15;;
33844;SDS011;20145;43.118;25.694;2023-08-06T05:50:12;3.45;;;2.13;;
33844;SDS011;20145;43.118;25.694;2023-08-06T05:52:38;4.80;;;1.70;;
33844;SDS011;20145;43.118;25.694;2023-08-06T05:55:04;3.63;;;1.20;;
33844;SDS011;20145;43.118;25.694;2023-08-06T05:57:29;2.08;;;1.17;;
33844;SDS011;20145;43.118;25.694;2023-08-06T05:59:55;1.35;;;1.10;;
33844;SDS011;20145;43.118;25.694;2023-08-06T06:02:20;3.55;;;1.40;;
33844;SDS011;20145;43.118;25.694;2023-08-06T06:04:46;1.70;;;1.40;;
33844;SDS011;20145;43.118;25.694;2023-08-06T06:07:11;1.30;;;1.20;;
33844;SDS011;20145;43.118;25.694;2023-08-06T06:09:37;1.73;;;1.35;;
33844;SDS011;20145;43.118;25.694;2023-08-06T06:12:04;2.75;;;1.55;;
33844;SDS011;20145;43.118;25.694;2023-08-06T06:14:31;4.40;;;1.48;;
33844;SDS011;20145;43.118;25.694;2023-08-06T06:16:56;1.40;;;1.23;;
33844;SDS011;20145;43.118;25.694;2023-08-06T06:19:22;2.08;;;1.60;;
33844;SDS011;20145;43.118;25.694;2023-08-06T06:21:47;3.22;;;1.40;;
33844;SDS011;20145;43.118;25.694;2023-08-06T06:24:13;8.82;;;1.80;;
33844;SDS011;20145;43.118;25.694;2023-08-06T06:26:38;2.33;;;1.42;;
33844;SDS011;20145;43.118;25.694;2023-08-06T06:29:04;1.92;;;1.58;;
33844;SDS011;20145;43.118;25.694;2023-08-06T06:31:30;1.98;;;1.77;;
33844;SDS011;20145;43.118;25.694;2023-08-06T06:33:55;2.83;;;2.10;;
33844;SDS011;20145;43.118;25.694;2023-08-06T06:36:21;4.07;;;2.20;;
33844;SDS011;20145;43.118;25.694;2023-08-06T06:38:46;3.00;;;2.05;;
33844;SDS011;20145;43.118;25.694;2023-08-06T06:41:14;5.35;;;2.20;;
33844;SDS011;20145;43.118;25.694;2023-08-06T06:43:40;4.55;;;2.03;;
33844;SDS011;20145;43.118;25.694;2023-08-06T06:46:05;3.65;;;2.42;;
33844;SDS011;20145;43.118;25.694;2023-08-06T06:48:37;3.20;;;1.83;;
33844;SDS011;20145;43.118;25.694;2023-08-06T06:51:02;2.55;;;1.83;;
33844;SDS011;20145;43.118;25.694;2023-08-06T06:53:28;3.85;;;1.80;;
33844;SDS011;20145;43.118;25.694;2023-08-06T06:56:01;2.33;;;1.60;;
33844;SDS011;20145;43.118;25.694;2023-08-06T06:58:27;1.77;;;1.58;;
33844;SDS011;20145;43.118;25.694;2023-08-06T07:00:53;2.08;;;1.40;;
33844;SDS011;20145;43.118;25.694;2023-08-06T07:03:19;1.80;;;1.48;;
33844;SDS011;20145;43.118;25.694;2023-08-06T07:05:45;1.80;;;1.48;;
33844;SDS011;20145;43.118;25.694;2023-08-06T07:08:11;2.60;;;1.60;;
33844;SDS011;20145;43.118;25.694;2023-08-06T07:10:37;4.65;;;1.60;;
33844;SDS011;20145;43.118;25.694;2023-08-06T07:13:03;3.15;;;1.92;;
33844;SDS011;20145;43.118;25.694;2023-08-06T07:15:28;2.70;;;2.00;;
33844;SDS011;20145;43.118;25.694;2023-08-06T07:17:55;2.03;;;1.55;;
33844;SDS011;20145;43.118;25.694;2023-08-06T07:20:21;2.38;;;1.70;;
33844;SDS011;20145;43.118;25.694;2023-08-06T07:22:46;2.80;;;1.75;;
33844;SDS011;20145;43.118;25.694;2023-08-06T07:25:12;1.42;;;1.33;;
33844;SDS011;20145;43.118;25.694;2023-08-06T07:27:38;1.80;;;1.70;;
33844;SDS011;20145;43.118;25.694;2023-08-06T07:30:04;2.58;;;1.40;;
33844;SDS011;20145;43.118;25.694;2023-08-06T07:32:30;3.83;;;1.42;;
33844;SDS011;20145;43.118;25.694;2023-08-06T07:34:56;5.50;;;2.05;;
33844;SDS011;20145;43.118;25.694;2023-08-06T07:37:25;3.50;;;1.38;;
33844;SDS011;20145;43.118;25.694;2023-08-06T07:39:53;3.25;;;1.70;;
33844;SDS011;20145;43.118;25.694;2023-08-06T07:42:19;1.75;;;1.60;;
33844;SDS011;20145;43.118;25.694;2023-08-06T07:44:55;2.53;;;2.10;;
33844;SDS011;20145;43.118;25.694;2023-08-06T07:47:22;3.85;;;2.08;;
33844;SDS011;20145;43.118;25.694;2023-08-06T07:49:48;3.95;;;2.10;;
33844;SDS011;20145;43.118;25.694;2023-08-06T07:52:13;2.78;;;1.52;;
33844;SDS011;20145;43.118;25.694;2023-08-06T07:54:39;2.10;;;1.90;;
33844;SDS011;20145;43.118;25.694;2023-08-06T07:57:05;3.58;;;2.10;;
33844;SDS011;20145;43.118;25.694;2023-08-06T07:59:31;5.72;;;2.00;;
33844;SDS011;20145;43.118;25.694;2023-08-06T08:04:33;6.57;;;2.58;;
33844;SDS011;20145;43.118;25.694;2023-08-06T08:07:00;11.52;;;2.72;;
33844;SDS011;20145;43.118;25.694;2023-08-06T08:09:27;6.85;;;3.40;;
33844;SDS011;20145;43.118;25.694;2023-08-06T08:11:54;3.58;;;2.97;;
33844;SDS011;20145;43.118;25.694;2023-08-06T08:14:20;8.73;;;2.75;;
33844;SDS011;20145;43.118;25.694;2023-08-06T08:16:47;4.63;;;2.13;;
33844;SDS011;20145;43.118;25.694;2023-08-06T08:19:12;3.22;;;2.35;;
33844;SDS011;20145;43.118;25.694;2023-08-06T08:21:46;4.57;;;2.53;;
33844;SDS011;20145;43.118;25.694;2023-08-06T08:27:04;5.70;;;2.22;;
33844;SDS011;20145;43.118;25.694;2023-08-06T08:29:31;50.97;;;8.45;;
33844;SDS011;20145;43.118;25.694;2023-08-06T08:31:57;4.40;;;2.38;;
33844;SDS011;20145;43.118;25.694;2023-08-06T08:34:23;3.58;;;2.60;;
33844;SDS011;20145;43.118;25.694;2023-08-06T08:36:49;4.53;;;1.95;;
33844;SDS011;20145;43.118;25.694;2023-08-06T08:39:18;2.60;;;2.30;;
33844;SDS011;20145;43.118;25.694;2023-08-06T08:41:44;2.78;;;2.53;;
33844;SDS011;20145;43.118;25.694;2023-08-06T08:44:18;8.50;;;5.63;;
33844;SDS011;20145;43.118;25.694;2023-08-06T08:46:45;6.35;;;3.05;;
33844;SDS011;20145;43.118;25.694;2023-08-06T08:49:14;9.85;;;3.40;;
33844;SDS011;20145;43.118;25.694;2023-08-06T08:51:40;5.20;;;3.83;;
33844;SDS011;20145;43.118;25.694;2023-08-06T08:54:06;5.18;;;2.67;;
33844;SDS011;20145;43.118;25.694;2023-08-06T08:56:33;2.97;;;2.55;;
33844;SDS011;20145;43.118;25.694;2023-08-06T08:58:58;5.03;;;3.03;;
33844;SDS011;20145;43.118;25.694;2023-08-06T09:01:26;5.63;;;3.42;;
33844;SDS011;20145;43.118;25.694;2023-08-06T09:03:53;6.70;;;3.75;;
33844;SDS011;20145;43.118;25.694;2023-08-06T09:06:22;6.88;;;4.45;;
33844;SDS011;20145;43.118;25.694;2023-08-06T09:11:29;10.73;;;5.05;;
33844;SDS011;20145;43.118;25.694;2023-08-06T09:14:05;5.63;;;4.40;;
33844;SDS011;20145;43.118;25.694;2023-08-06T09:16:33;7.45;;;5.53;;
33844;SDS011;20145;43.118;25.694;2023-08-06T09:19:12;5.10;;;4.60;;
33844;SDS011;20145;43.118;25.694;2023-08-06T09:21:42;10.03;;;5.17;;
33844;SDS011;20145;43.118;25.694;2023-08-06T09:24:11;7.25;;;5.35;;
33844;SDS011;20145;43.118;25.694;2023-08-06T09:26:39;5.82;;;4.35;;
33844;SDS011;20145;43.118;25.694;2023-08-06T09:29:07;4.07;;;3.53;;
33844;SDS011;20145;43.118;25.694;2023-08-06T09:31:41;4.82;;;3.55;;
33844;SDS011;20145;43.118;25.694;2023-08-06T09:36:49;3.97;;;3.58;;
33844;SDS011;20145;43.118;25.694;2023-08-06T09:39:16;4.53;;;3.17;;
33844;SDS011;20145;43.118;25.694;2023-08-06T09:44:16;5.47;;;3.75;;
33844;SDS011;20145;43.118;25.694;2023-08-06T09:46:50;4.28;;;3.63;;
33844;SDS011;20145;43.118;25.694;2023-08-06T09:49:18;9.75;;;3.38;;
33844;SDS011;20145;43.118;25.694;2023-08-06T09:51:46;7.65;;;3.97;;
33844;SDS011;20145;43.118;25.694;2023-08-06T09:54:16;7.30;;;3.25;;
33844;SDS011;20145;43.118;25.694;2023-08-06T09:56:42;9.68;;;4.25;;
33844;SDS011;20145;43.118;25.694;2023-08-06T09:59:08;6.13;;;3.10;;
33844;SDS011;20145;43.118;25.694;2023-08-06T10:01:36;4.25;;;3.03;;
33844;SDS011;20145;43.118;25.694;2023-08-06T10:04:03;9.15;;;4.35;;
33844;SDS011;20145;43.118;25.694;2023-08-06T10:06:29;5.75;;;4.25;;
33844;SDS011;20145;43.118;25.694;2023-08-06T10:08:55;6.20;;;4.03;;
33844;SDS011;20145;43.118;25.694;2023-08-06T10:11:21;7.38;;;3.60;;
33844;SDS011;20145;43.118;25.694;2023-08-06T10:13:50;4.18;;;3.50;;
33844;SDS011;20145;43.118;25.694;2023-08-06T10:16:20;19.42;;;4.68;;
33844;SDS011;20145;43.118;25.694;2023-08-06T10:18:47;5.68;;;4.00;;
33844;SDS011;20145;43.118;25.694;2023-08-06T10:21:13;4.28;;;3.72;;
33844;SDS011;20145;43.118;25.694;2023-08-06T10:23:40;4.10;;;3.67;;
33844;SDS011;20145;43.118;25.694;2023-08-06T10:26:05;5.40;;;4.15;;
33844;SDS011;20145;43.118;25.694;2023-08-06T10:28:35;4.65;;;3.80;;
33844;SDS011;20145;43.118;25.694;2023-08-06T10:31:04;5.80;;;4.97;;
33844;SDS011;20145;43.118;25.694;2023-08-06T10:33:43;12.88;;;5.53;;
33844;SDS011;20145;43.118;25.694;2023-08-06T10:36:10;4.72;;;4.28;;
33844;SDS011;20145;43.118;25.694;2023-08-06T10:38:46;4.68;;;4.00;;
33844;SDS011;20145;43.118;25.694;2023-08-06T10:41:22;4.70;;;4.20;;
33844;SDS011;20145;43.118;25.694;2023-08-06T10:43:52;3.70;;;3.40;;
33844;SDS011;20145;43.118;25.694;2023-08-06T10:46:33;6.03;;;4.40;;
33844;SDS011;20145;43.118;25.694;2023-08-06T10:48:58;5.80;;;3.80;;
33844;SDS011;20145;43.118;25.694;2023-08-06T10:51:24;3.75;;;3.33;;
33844;SDS011;20145;43.118;25.694;2023-08-06T10:53:50;4.25;;;3.85;;
33844;SDS011;20145;43.118;25.694;2023-08-06T10:56:17;5.50;;;4.18;;
33844;SDS011;20145;43.118;25.694;2023-08-06T10:58:44;6.68;;;3.92;;
33844;SDS011;20145;43.118;25.694;2023-08-06T11:01:10;4.25;;;3.80;;
33844;SDS011;20145;43.118;25.694;2023-08-06T11:03:37;4.53;;;3.70;;
33844;SDS011;20145;43.118;25.694;2023-08-06T11:06:03;4.18;;;3.78;;
33844;SDS011;20145;43.118;25.694;2023-08-06T11:08:33;6.13;;;4.32;;
33844;SDS011;20145;43.118;25.694;2023-08-06T11:11:10;4.13;;;3.73;;
33844;SDS011;20145;43.118;25.694;2023-08-06T11:13:38;5.22;;;4.72;;
33844;SDS011;20145;43.118;25.694;2023-08-06T11:16:05;5.75;;;4.97;;
33844;SDS011;20145;43.118;25.694;2023-08-06T11:18:31;6.45;;;4.35;;
33844;SDS011;20145;43.118;25.694;2023-08-06T11:20:58;4.80;;;3.53;;
33844;SDS011;20145;43.118;25.694;2023-08-06T11:23:26;34.10;;;6.75;;
33844;SDS011;20145;43.118;25.694;2023-08-06T11:25:54;19.58;;;7.15;;
33844;SDS011;20145;43.118;25.694;2023-08-06T11:28:20;15.13;;;7.72;;
33844;SDS011;20145;43.118;25.694;2023-08-06T11:30:49;19.60;;;6.70;;
33844;SDS011;20145;43.118;25.694;2023-08-06T11:33:24;16.63;;;7.00;;
33844;SDS011;20145;43.118;25.694;2023-08-06T11:35:50;12.65;;;6.72;;
33844;SDS011;20145;43.118;25.694;2023-08-06T11:38:16;15.95;;;9.88;;
33844;SDS011;20145;43.118;25.694;2023-08-06T11:40:46;16.55;;;8.00;;
33844;SDS011;20145;43.118;25.694;2023-08-06T11:43:13;14.75;;;7.03;;
33844;SDS011;20145;43.118;25.694;2023-08-06T11:45:39;10.48;;;5.97;;
33844;SDS011;20145;43.118;25.694;2023-08-06T11:48:06;12.55;;;5.68;;
33844;SDS011;20145;43.118;25.694;2023-08-06T11:50:36;9.13;;;6.18;;
33844;SDS011;20145;43.118;25.694;2023-08-06T11:53:05;6.70;;;4.78;;
33844;SDS011;20145;43.118;25.694;2023-08-06T11:55:31;8.05;;;5.35;;
33844;SDS011;20145;43.118;25.694;2023-08-06T11:57:58;4.72;;;4.22;;
33844;SDS011;20145;43.118;25.694;2023-08-06T12:02:54;7.30;;;4.95;;
33844;SDS011;20145;43.118;25.694;2023-08-06T12:05:21;8.27;;;6.10;;
33844;SDS011;20145;43.118;25.694;2023-08-06T12:07:52;6.18;;;5.57;;
33844;SDS011;20145;43.118;25.694;2023-08-06T12:10:20;6.28;;;5.68;;
33844;SDS011;20145;43.118;25.694;2023-08-06T12:12:46;7.15;;;5.93;;
33844;SDS011;20145;43.118;25.694;2023-08-06T12:15:12;5.75;;;5.00;;
33844;SDS011;20145;43.118;25.694;2023-08-06T12:17:37;6.15;;;4.63;;
33844;SDS011;20145;43.118;25.694;2023-08-06T12:20:04;6.25;;;4.35;;
33844;SDS011;20145;43.118;25.694;2023-08-06T12:22:31;5.80;;;5.25;;
33844;SDS011;20145;43.118;25.694;2023-08-06T12:25:01;6.78;;;5.22;;
33844;SDS011;20145;43.118;25.694;2023-08-06T12:27:28;7.93;;;4.63;;
33844;SDS011;20145;43.118;25.694;2023-08-06T12:29:54;7.20;;;4.70;;
33844;SDS011;20145;43.118;25.694;2023-08-06T12:32:20;4.65;;;4.25;;
33844;SDS011;20145;43.118;25.694;2023-08-06T12:34:47;5.40;;;4.10;;
33844;SDS011;20145;43.118;25.694;2023-08-06T12:37:12;5.43;;;4.45;;
33844;SDS011;20145;43.118;25.694;2023-08-06T12:39:38;4.28;;;3.88;;
33844;SDS011;20145;43.118;25.694;2023-08-06T12:42:04;5.13;;;4.00;;
33844;SDS011;20145;43.118;25.694;2023-08-06T12:44:31;5.25;;;3.70;;
33844;SDS011;20145;43.118;25.694;2023-08-06T12:46:57;6.10;;;4.10;;
33844;SDS011;20145;43.118;25.694;2023-08-06T12:49:24;6.93;;;4.22;;
33844;SDS011;20145;43.118;25.694;2023-08-06T12:51:51;4.35;;;3.63;;
33844;SDS011;20145;43.118;25.694;2023-08-06T12:54:18;6.80;;;3.78;;
33844;SDS011;20145;43.118;25.694;2023-08-06T12:56:45;4.35;;;3.17;;
33844;SDS011;20145;43.118;25.694;2023-08-06T12:59:11;4.57;;;3.35;;
33844;SDS011;20145;43.118;25.694;2023-08-06T13:01:39;3.83;;;3.05;;
33844;SDS011;20145;43.118;25.694;2023-08-06T13:04:04;3.67;;;3.38;;
33844;SDS011;20145;43.118;25.694;2023-08-06T13:06:30;6.70;;;3.45;;
33844;SDS011;20145;43.118;25.694;2023-08-06T13:08:58;5.43;;;3.40;;
33844;SDS011;20145;43.118;25.694;2023-08-06T13:11:24;5.05;;;2.90;;
33844;SDS011;20145;43.118;25.694;2023-08-06T13:13:49;5.50;;;3.35;;
33844;SDS011;20145;43.118;25.694;2023-08-06T13:16:15;4.50;;;3.40;;
33844;SDS011;20145;43.118;25.694;2023-08-06T13:18:40;4.68;;;3.40;;
33844;SDS011;20145;43.118;25.694;2023-08-06T13:21:06;5.20;;;3.20;;
33844;SDS011;20145;43.118;25.694;2023-08-06T13:23:32;4.10;;;3.17;;
33844;SDS011;20145;43.118;25.694;2023-08-06T13:25:57;2.95;;;2.75;;
33844;SDS011;20145;43.118;25.694;2023-08-06T13:28:23;4.13;;;3.20;;
33844;SDS011;20145;43.118;25.694;2023-08-06T13:30:49;5.93;;;3.53;;
33844;SDS011;20145;43.118;25.694;2023-08-06T13:33:15;6.63;;;5.68;;
33844;SDS011;20145;43.118;25.694;2023-08-06T13:35:40;4.18;;;3.15;;
33844;SDS011;20145;43.118;25.694;2023-08-06T13:38:06;3.30;;;3.00;;
33844;SDS011;20145;43.118;25.694;2023-08-06T13:40:32;4.68;;;3.22;;
33844;SDS011;20145;43.118;25.694;2023-08-06T13:42:58;4.03;;;3.03;;
33844;SDS011;20145;43.118;25.694;2023-08-06T13:45:24;3.22;;;2.78;;
33844;SDS011;20145;43.118;25.694;2023-08-06T13:47:50;7.13;;;2.97;;
33844;SDS011;20145;43.118;25.694;2023-08-06T13:50:15;6.57;;;3.53;;
33844;SDS011;20145;43.118;25.694;2023-08-06T13:52:41;6.72;;;3.22;;
33844;SDS011;20145;43.118;25.694;2023-08-06T13:55:07;5.35;;;4.60;;
33844;SDS011;20145;43.118;25.694;2023-08-06T13:57:36;3.80;;;3.00;;
33844;SDS011;20145;43.118;25.694;2023-08-06T14:00:01;6.85;;;2.90;;
33844;SDS011;20145;43.118;25.694;2023-08-06T14:02:27;2.95;;;2.70;;
33844;SDS011;20145;43.118;25.694;2023-08-06T14:04:53;2.60;;;2.40;;
33844;SDS011;20145;43.118;25.694;2023-08-06T14:07:19;3.38;;;3.08;;
33844;SDS011;20145;43.118;25.694;2023-08-06T14:09:45;3.38;;;3.08;;
33844;SDS011;20145;43.118;25.694;2023-08-06T14:12:12;5.63;;;3.53;;
33844;SDS011;20145;43.118;25.694;2023-08-06T14:14:38;4.40;;;3.33;;
33844;SDS011;20145;43.118;25.694;2023-08-06T14:17:03;4.10;;;2.60;;
33844;SDS011;20145;43.118;25.694;2023-08-06T14:19:29;2.83;;;2.58;;
33844;SDS011;20145;43.118;25.694;2023-08-06T14:21:55;3.63;;;3.08;;
33844;SDS011;20145;43.118;25.694;2023-08-06T14:24:20;5.13;;;2.95;;
33844;SDS011;20145;43.118;25.694;2023-08-06T14:26:46;3.60;;;2.72;;
33844;SDS011;20145;43.118;25.694;2023-08-06T14:29:12;2.55;;;2.35;;
33844;SDS011;20145;43.118;25.694;2023-08-06T14:31:39;3.15;;;2.70;;
33844;SDS011;20145;43.118;25.694;2023-08-06T14:34:05;2.60;;;2.40;;
33844;SDS011;20145;43.118;25.694;2023-08-06T14:36:30;3.63;;;3.10;;
33844;SDS011;20145;43.118;25.694;2023-08-06T14:38:56;4.40;;;3.80;;
33844;SDS011;20145;43.118;25.694;2023-08-06T14:41:21;5.00;;;3.38;;
33844;SDS011;20145;43.118;25.694;2023-08-06T14:43:47;8.30;;;6.45;;
33844;SDS011;20145;43.118;25.694;2023-08-06T14:46:12;5.38;;;4.78;;
33844;SDS011;20145;43.118;25.694;2023-08-06T14:48:38;4.30;;;3.80;;
33844;SDS011;20145;43.118;25.694;2023-08-06T14:51:04;6.93;;;4.78;;
33844;SDS011;20145;43.118;25.694;2023-08-06T14:53:30;5.38;;;3.17;;